sensor_id;sensor_type;location;lat;lon;timestamp;P1;durP1;ratioP1;P2;durP2;ratioP2
52184;SDS011;38160;52.876;18.778;2022-10-31T00:02:13;67.62;;;29.27;;
52184;SDS011;38160;52.876;18.778;2022-10-31T00:04:44;60.00;;;29.15;;
52184;SDS011;38160;52.876;18.778;2022-10-31T00:07:16;63.63;;;28.77;;
52184;SDS011;38160;52.876;18.778;2022-10-31T00:09:48;47.85;;;28.20;;
52184;SDS011;38160;52.876;18.778;2022-10-31T00:12:19;62.43;;;28.38;;
52184;SDS011;38160;52.876;18.778;2022-10-31T00:14:51;61.20;;;28.45;;
52184;SDS011;38160;52.876;18.778;2022-10-31T00:17:22;66.77;;;28.27;;
52184;SDS011;38160;52.876;18.778;2022-10-31T00:19:54;48.20;;;27.52;;
52184;SDS011;38160;52.876;18.778;2022-10-31T00:22:25;45.73;;;28.35;;
52184;SDS011;38160;52.876;18.778;2022-10-31T00:24:57;41.18;;;27.45;;
52184;SDS011;38160;52.876;18.778;2022-10-31T00:27:28;49.23;;;28.90;;
52184;SDS011;38160;52.876;18.778;2022-10-31T00:30:00;50.43;;;26.93;;
52184;SDS011;38160;52.876;18.778;2022-10-31T00:32:32;48.20;;;28.00;;
52184;SDS011;38160;52.876;18.778;2022-10-31T00:35:03;40.63;;;28.15;;
52184;SDS011;38160;52.876;18.778;2022-10-31T00:37:36;54.18;;;28.55;;
52184;SDS011;38160;52.876;18.778;2022-10-31T00:40:08;43.92;;;27.77;;
52184;SDS011;38160;52.876;18.778;2022-10-31T00:42:41;60.67;;;27.73;;
52184;SDS011;38160;52.876;18.778;2022-10-31T00:45:13;46.92;;;27.45;;
52184;SDS011;38160;52.876;18.778;2022-10-31T00:47:44;50.50;;;28.73;;
52184;SDS011;38160;52.876;18.778;2022-10-31T00:50:16;46.55;;;29.05;;
52184;SDS011;38160;52.876;18.778;2022-10-31T05:59:39;68.47;;;28.95;;
52184;SDS011;38160;52.876;18.778;2022-10-31T06:02:27;67.78;;;29.05;;
52184;SDS011;38160;52.876;18.778;2022-10-31T06:05:03;77.22;;;27.37;;
52184;SDS011;38160;52.876;18.778;2022-10-31T06:14:26;66.70;;;24.98;;
52184;SDS011;38160;52.876;18.778;2022-10-31T06:16:59;66.77;;;25.77;;
52184;SDS011;38160;52.876;18.778;2022-10-31T06:23:03;209.20;;;29.50;;
52184;SDS011;38160;52.876;18.778;2022-10-31T06:25:36;127.70;;;25.80;;
52184;SDS011;38160;52.876;18.778;2022-10-31T06:41:12;116.77;;;22.67;;
52184;SDS011;38160;52.876;18.778;2022-10-31T06:43:48;74.05;;;18.73;;
52184;SDS011;38160;52.876;18.778;2022-10-31T07:13:47;69.80;;;16.90;;
52184;SDS011;38160;52.876;18.778;2022-10-31T07:16:24;62.80;;;16.82;;
52184;SDS011;38160;52.876;18.778;2022-10-31T07:22:19;59.03;;;16.73;;
52184;SDS011;38160;52.876;18.778;2022-10-31T07:24:53;92.70;;;19.10;;
52184;SDS011;38160;52.876;18.778;2022-10-31T07:44:31;59.05;;;17.77;;
52184;SDS011;38160;52.876;18.778;2022-10-31T07:47:22;46.73;;;17.23;;
52184;SDS011;38160;52.876;18.778;2022-10-31T07:50:12;36.15;;;16.87;;
52184;SDS011;38160;52.876;18.778;2022-10-31T07:56:29;36.63;;;16.05;;
52184;SDS011;38160;52.876;18.778;2022-10-31T07:59:00;45.80;;;18.05;;
52184;SDS011;38160;52.876;18.778;2022-10-31T08:08:20;41.53;;;17.02;;
52184;SDS011;38160;52.876;18.778;2022-10-31T08:10:52;45.33;;;17.35;;
52184;SDS011;38160;52.876;18.778;2022-10-31T08:43:58;42.53;;;16.75;;
52184;SDS011;38160;52.876;18.778;2022-10-31T14:31:56;60.73;;;35.80;;
52184;SDS011;38160;52.876;18.778;2022-10-31T14:34:52;56.40;;;34.83;;
52184;SDS011;38160;52.876;18.778;2022-10-31T14:43:34;82.15;;;36.30;;
52184;SDS011;38160;52.876;18.778;2022-10-31T15:32:54;69.60;;;34.30;;
52184;SDS011;38160;52.876;18.778;2022-10-31T15:35:29;62.70;;;33.80;;
52184;SDS011;38160;52.876;18.778;2022-10-31T15:41:28;71.90;;;35.63;;
52184;SDS011;38160;52.876;18.778;2022-10-31T15:44:13;62.55;;;34.50;;
52184;SDS011;38160;52.876;18.778;2022-10-31T15:49:55;56.08;;;32.85;;
52184;SDS011;38160;52.876;18.778;2022-10-31T15:55:56;53.20;;;32.55;;
52184;SDS011;38160;52.876;18.778;2022-10-31T15:58:42;51.60;;;33.85;;
52184;SDS011;38160;52.876;18.778;2022-10-31T16:04:54;70.60;;;35.98;;
52184;SDS011;38160;52.876;18.778;2022-10-31T16:08:00;62.17;;;37.88;;
52184;SDS011;38160;52.876;18.778;2022-10-31T16:16:54;53.33;;;35.40;;
52184;SDS011;38160;52.876;18.778;2022-10-31T16:23:44;54.83;;;33.35;;
52184;SDS011;38160;52.876;18.778;2022-10-31T16:26:19;54.08;;;34.18;;
52184;SDS011;38160;52.876;18.778;2022-10-31T16:41:29;47.70;;;30.57;;
52184;SDS011;38160;52.876;18.778;2022-10-31T16:44:23;45.83;;;30.05;;
52184;SDS011;38160;52.876;18.778;2022-10-31T16:52:24;48.85;;;32.08;;
52184;SDS011;38160;52.876;18.778;2022-10-31T16:54:55;46.95;;;32.08;;
52184;SDS011;38160;52.876;18.778;2022-10-31T16:57:27;47.23;;;30.82;;
52184;SDS011;38160;52.876;18.778;2022-10-31T17:00:02;45.70;;;31.05;;
52184;SDS011;38160;52.876;18.778;2022-10-31T17:02:35;53.08;;;32.38;;
52184;SDS011;38160;52.876;18.778;2022-10-31T17:05:13;51.60;;;33.02;;
52184;SDS011;38160;52.876;18.778;2022-10-31T17:07:47;47.20;;;32.55;;
52184;SDS011;38160;52.876;18.778;2022-10-31T17:10:21;57.23;;;32.60;;
52184;SDS011;38160;52.876;18.778;2022-10-31T17:12:53;49.25;;;30.68;;
52184;SDS011;38160;52.876;18.778;2022-10-31T17:15:26;51.83;;;31.27;;
52184;SDS011;38160;52.876;18.778;2022-10-31T17:17:59;49.70;;;31.33;;
52184;SDS011;38160;52.876;18.778;2022-10-31T17:20:30;49.15;;;31.02;;
52184;SDS011;38160;52.876;18.778;2022-10-31T17:23:13;48.00;;;30.97;;
52184;SDS011;38160;52.876;18.778;2022-10-31T17:25:46;51.90;;;31.37;;
52184;SDS011;38160;52.876;18.778;2022-10-31T17:28:18;46.73;;;29.27;;
52184;SDS011;38160;52.876;18.778;2022-10-31T17:30:52;42.78;;;28.65;;
52184;SDS011;38160;52.876;18.778;2022-10-31T17:52:06;46.50;;;28.70;;
52184;SDS011;38160;52.876;18.778;2022-10-31T17:54:39;49.60;;;33.30;;
52184;SDS011;38160;52.876;18.778;2022-10-31T18:13:08;125.97;;;83.42;;
52184;SDS011;38160;52.876;18.778;2022-10-31T18:15:40;90.97;;;59.60;;
52184;SDS011;38160;52.876;18.778;2022-10-31T18:18:12;90.32;;;57.13;;
52184;SDS011;38160;52.876;18.778;2022-10-31T18:20:43;107.70;;;67.05;;
52184;SDS011;38160;52.876;18.778;2022-10-31T18:23:15;51.58;;;30.12;;
52184;SDS011;38160;52.876;18.778;2022-10-31T18:25:47;45.63;;;30.30;;
52184;SDS011;38160;52.876;18.778;2022-10-31T18:28:18;404.30;;;283.52;;
52184;SDS011;38160;52.876;18.778;2022-10-31T18:30:50;381.47;;;266.73;;
52184;SDS011;38160;52.876;18.778;2022-10-31T18:33:25;168.13;;;113.22;;
52184;SDS011;38160;52.876;18.778;2022-10-31T18:36:02;50.08;;;36.68;;
52184;SDS011;38160;52.876;18.778;2022-10-31T18:51:42;54.77;;;36.70;;
52184;SDS011;38160;52.876;18.778;2022-10-31T18:54:14;41.58;;;29.30;;
52184;SDS011;38160;52.876;18.778;2022-10-31T18:56:46;50.83;;;29.20;;
52184;SDS011;38160;52.876;18.778;2022-10-31T19:48:36;43.10;;;27.00;;
52184;SDS011;38160;52.876;18.778;2022-10-31T19:51:09;50.20;;;28.47;;
52184;SDS011;38160;52.876;18.778;2022-10-31T19:53:44;44.27;;;28.90;;
52184;SDS011;38160;52.876;18.778;2022-10-31T19:56:17;42.83;;;29.63;;
52184;SDS011;38160;52.876;18.778;2022-10-31T20:18:04;40.17;;;27.10;;
52184;SDS011;38160;52.876;18.778;2022-10-31T20:20:35;48.65;;;27.15;;
52184;SDS011;38160;52.876;18.778;2022-10-31T20:25:45;45.30;;;27.52;;
52184;SDS011;38160;52.876;18.778;2022-10-31T23:17:38;52.73;;;26.23;;
